Time;durP1;ratioP1;P1;durP2;ratioP2;P2;SDS_P1;SDS_P2;PMS_P1;PMS_P2;Temp;Humidity;BMP_temperature;BMP_pressure;BME280_temperature;BME280_humidity;BME280_pressure;Samples;Min_cycle;Max_cycle;Signal;HPM_P1;HPM_P2
2021/06/14 00:01:50;;;;;;;8.17;4.70;;;;;;;;;;4918892;29;20184;-88
2021/06/14 00:04:16;;;;;;;7.50;4.90;;;;;;;;;;4901793;29;20660;-87
2021/06/14 00:06:41;;;;;;;8.23;4.50;;;;;;;;;;4917975;29;20295;-87
2021/06/14 00:09:07;;;;;;;8.23;4.90;;;;;;;;;;4918346;29;20196;-89
2021/06/14 00:11:32;;;;;;;6.23;4.67;;;;;;;;;;4918585;29;20608;-88
2021/06/14 00:13:58;;;;;;;7.17;4.90;;;;;;;;;;4917479;29;20236;-91
2021/06/14 00:16:23;;;;;;;10.37;5.20;;;;;;;;;;4901197;29;20212;-91
2021/06/14 00:18:48;;;;;;;7.63;4.77;;;;;;;;;;4901406;29;20183;-91
2021/06/14 00:21:14;;;;;;;9.03;4.90;;;;;;;;;;4901365;29;21165;-91
2021/06/14 00:23:39;;;;;;;6.37;4.67;;;;;;;;;;4900987;29;20185;-91
2021/06/14 00:26:09;;;;;;;6.03;4.97;;;;;;;;;;4901115;29;20215;-91
2021/06/14 00:28:35;;;;;;;7.57;4.63;;;;;;;;;;4917221;29;20524;-91
2021/06/14 00:31:01;;;;;;;8.97;4.37;;;;;;;;;;4900325;29;20184;-91
2021/06/14 00:33:26;;;;;;;7.67;4.43;;;;;;;;;;4900352;29;20192;-86
2021/06/14 00:35:52;;;;;;;6.33;4.70;;;;;;;;;;4917989;29;20176;-89
2021/06/14 00:38:17;;;;;;;4.63;4.20;;;;;;;;;;4917965;29;20183;-91
2021/06/14 00:40:43;;;;;;;5.80;4.10;;;;;;;;;;4900403;29;20176;-90
2021/06/14 00:43:08;;;;;;;7.83;4.80;;;;;;;;;;4900310;29;20185;-91
2021/06/14 00:45:36;;;;;;;7.33;4.63;;;;;;;;;;4917261;29;20188;-90
2021/06/14 00:48:03;;;;;;;8.07;4.53;;;;;;;;;;4900448;29;20267;-89
2021/06/14 00:50:33;;;;;;;6.50;4.80;;;;;;;;;;4917700;29;20263;-88
2021/06/14 00:52:59;;;;;;;7.20;4.83;;;;;;;;;;4918002;29;20180;-88
2021/06/14 00:55:25;;;;;;;8.63;4.70;;;;;;;;;;4917734;29;20172;-89
2021/06/14 00:57:50;;;;;;;7.80;4.50;;;;;;;;;;4917705;29;20211;-89
2021/06/14 01:00:16;;;;;;;7.17;4.60;;;;;;;;;;4900741;29;20228;-89
2021/06/14 01:02:41;;;;;;;5.50;4.50;;;;;;;;;;4917403;29;20228;-89
2021/06/14 01:05:08;;;;;;;7.40;4.87;;;;;;;;;;4917636;29;20687;-89
2021/06/14 01:07:34;;;;;;;6.70;4.70;;;;;;;;;;4917107;29;20208;-86
2021/06/14 01:09:59;;;;;;;8.87;5.07;;;;;;;;;;4917292;29;20195;-84
2021/06/14 01:12:28;;;;;;;10.93;4.63;;;;;;;;;;4917464;29;20181;-87
2021/06/14 01:15:14;;;;;;;6.10;4.80;;;;;;;;;;4916842;29;20177;-88
2021/06/14 01:18:09;;;;;;;5.20;4.37;;;;;;;;;;4916755;29;20580;-89
2021/06/14 01:20:37;;;;;;;7.93;4.80;;;;;;;;;;4904305;29;20188;-88
2021/06/14 01:23:21;;;;;;;6.87;4.63;;;;;;;;;;4916749;29;20259;-88
2021/06/14 01:25:58;;;;;;;8.23;4.57;;;;;;;;;;4916737;29;20232;-89
2021/06/14 01:28:25;;;;;;;7.03;4.67;;;;;;;;;;4899917;29;20215;-87
2021/06/14 01:30:51;;;;;;;9.50;5.00;;;;;;;;;;4916595;29;20219;-88
2021/06/14 01:33:18;;;;;;;6.13;4.20;;;;;;;;;;4916519;29;20239;-88
2021/06/14 01:35:50;;;;;;;8.60;4.73;;;;;;;;;;4917219;29;20181;-88
2021/06/14 01:38:16;;;;;;;5.40;4.20;;;;;;;;;;4899927;29;20185;-88
2021/06/14 01:40:42;;;;;;;7.77;4.37;;;;;;;;;;4916576;29;20267;-89
2021/06/14 01:43:10;;;;;;;9.07;4.50;;;;;;;;;;4916881;29;20263;-88
2021/06/14 01:45:37;;;;;;;7.00;4.70;;;;;;;;;;4916395;29;20181;-88
2021/06/14 01:48:03;;;;;;;6.40;4.63;;;;;;;;;;4916340;29;20382;-86
2021/06/14 01:50:29;;;;;;;5.10;4.40;;;;;;;;;;4916717;29;20263;-86
2021/06/14 01:52:55;;;;;;;9.43;5.33;;;;;;;;;;4916528;29;20225;-86
2021/06/14 01:55:20;;;;;;;6.33;4.27;;;;;;;;;;4916292;29;20176;-85
2021/06/14 01:57:46;;;;;;;9.57;4.60;;;;;;;;;;4916558;29;20533;-85
2021/06/14 02:00:12;;;;;;;7.10;4.40;;;;;;;;;;4899478;29;20180;-86
2021/06/14 02:02:38;;;;;;;7.77;4.40;;;;;;;;;;4916210;29;20175;-86
2021/06/14 02:05:04;;;;;;;5.20;4.50;;;;;;;;;;4916802;29;20616;-84
2021/06/14 02:07:30;;;;;;;7.10;4.30;;;;;;;;;;4916439;29;20611;-85
2021/06/14 02:09:55;;;;;;;9.07;4.30;;;;;;;;;;4916442;29;20231;-85
2021/06/14 02:12:21;;;;;;;6.60;4.40;;;;;;;;;;4916666;29;20227;-85
2021/06/14 02:14:47;;;;;;;10.07;4.70;;;;;;;;;;4916667;29;20493;-87
2021/06/14 02:17:16;;;;;;;7.07;4.50;;;;;;;;;;4916298;29;20181;-85
2021/06/14 02:19:43;;;;;;;6.97;4.30;;;;;;;;;;4916400;29;20628;-86
2021/06/14 02:22:11;;;;;;;6.07;4.50;;;;;;;;;;4914990;29;20219;-85
2021/06/14 02:24:37;;;;;;;10.63;5.00;;;;;;;;;;4916277;29;20187;-85
2021/06/14 02:27:02;;;;;;;5.93;4.33;;;;;;;;;;4916275;29;20208;-86
2021/06/14 02:29:28;;;;;;;6.30;4.57;;;;;;;;;;4916885;29;20187;-86
2021/06/14 02:31:53;;;;;;;6.97;4.37;;;;;;;;;;4920088;29;20236;-86
2021/06/14 02:34:18;;;;;;;6.47;4.50;;;;;;;;;;4919819;29;20259;-86
2021/06/14 02:36:45;;;;;;;8.70;4.40;;;;;;;;;;4919811;29;20177;-85
2021/06/14 02:39:15;;;;;;;6.50;4.57;;;;;;;;;;4920201;29;20240;-86
2021/06/14 02:41:41;;;;;;;7.50;4.77;;;;;;;;;;4919764;29;20181;-85
2021/06/14 02:44:07;;;;;;;7.07;4.40;;;;;;;;;;4920149;29;20184;-84
2021/06/14 02:46:34;;;;;;;5.53;4.17;;;;;;;;;;4920211;29;20268;-86
2021/06/14 02:48:59;;;;;;;6.50;4.50;;;;;;;;;;4919837;29;20179;-86
2021/06/14 02:51:24;;;;;;;6.47;4.33;;;;;;;;;;4919324;29;20527;-86
2021/06/14 02:54:03;;;;;;;6.90;4.43;;;;;;;;;;4919615;29;20607;-85
2021/06/14 02:56:29;;;;;;;6.17;4.40;;;;;;;;;;4919781;29;20171;-86
2021/06/14 02:58:54;;;;;;;6.90;4.30;;;;;;;;;;4919448;29;20172;-85
2021/06/14 03:01:20;;;;;;;7.40;4.03;;;;;;;;;;4919574;29;20630;-86
2021/06/14 03:03:45;;;;;;;5.77;4.23;;;;;;;;;;4919649;29;20172;-85
2021/06/14 03:06:15;;;;;;;7.30;3.90;;;;;;;;;;4919518;29;20208;-85
2021/06/14 03:08:40;;;;;;;6.40;4.17;;;;;;;;;;4919166;29;20176;-86
2021/06/14 03:11:06;;;;;;;6.70;4.10;;;;;;;;;;4919747;29;20251;-86
2021/06/14 03:13:32;;;;;;;6.13;4.23;;;;;;;;;;4919189;29;20321;-86
2021/06/14 03:15:57;;;;;;;4.87;3.87;;;;;;;;;;4919337;29;20176;-88
2021/06/14 03:18:23;;;;;;;4.23;3.83;;;;;;;;;;4919577;29;20574;-88
2021/06/14 03:20:52;;;;;;;7.00;4.23;;;;;;;;;;4919628;29;20176;-87
2021/06/14 03:23:17;;;;;;;5.30;3.53;;;;;;;;;;4918954;29;20184;-90
2021/06/14 03:25:43;;;;;;;6.00;3.33;;;;;;;;;;4919461;29;20543;-89
2021/06/14 03:28:08;;;;;;;4.50;3.37;;;;;;;;;;4919393;29;20208;-90
2021/06/14 03:30:34;;;;;;;4.43;3.30;;;;;;;;;;4919328;29;20201;-90
2021/06/14 03:33:01;;;;;;;4.10;3.50;;;;;;;;;;4919138;29;20575;-90
2021/06/14 03:35:27;;;;;;;7.03;3.60;;;;;;;;;;4919062;29;20183;-90
2021/06/14 03:37:52;;;;;;;5.83;3.80;;;;;;;;;;4918834;29;20631;-88
2021/06/14 03:40:18;;;;;;;7.43;3.70;;;;;;;;;;4918826;29;20185;-88
2021/06/14 03:42:44;;;;;;;5.37;3.80;;;;;;;;;;4918749;29;20627;-88
2021/06/14 03:45:10;;;;;;;5.93;3.80;;;;;;;;;;4919292;29;20255;-88
2021/06/14 03:47:36;;;;;;;5.70;3.97;;;;;;;;;;4901979;29;20577;-88
2021/06/14 03:50:02;;;;;;;5.30;3.93;;;;;;;;;;4919024;29;21069;-87
2021/06/14 03:52:28;;;;;;;6.20;3.97;;;;;;;;;;4918863;29;20184;-86
2021/06/14 03:54:53;;;;;;;6.63;3.97;;;;;;;;;;4919494;29;20523;-86
2021/06/14 03:57:18;;;;;;;7.77;4.07;;;;;;;;;;4918913;29;20181;-86
2021/06/14 03:59:44;;;;;;;5.40;3.90;;;;;;;;;;4918824;29;20173;-85
2021/06/14 04:02:09;;;;;;;4.57;3.80;;;;;;;;;;4918959;29;20527;-89
2021/06/14 04:04:44;;;;;;;5.10;4.23;;;;;;;;;;4918650;29;20180;-89
2021/06/14 04:07:10;;;;;;;6.90;4.53;;;;;;;;;;4918865;29;20208;-89
2021/06/14 04:09:36;;;;;;;6.27;4.40;;;;;;;;;;4918703;29;20638;-91
2021/06/14 04:12:02;;;;;;;6.18;4.20;;;;;;;;;;4918599;29;20177;-92
2021/06/14 04:14:27;;;;;;;4.35;3.70;;;;;;;;;;4901613;29;20649;-92
2021/06/14 04:16:53;;;;;;;3.80;3.40;;;;;;;;;;4918399;29;20268;-90
2021/06/14 04:19:18;;;;;;;4.00;3.28;;;;;;;;;;4918563;29;20248;-89
2021/06/14 04:21:43;;;;;;;4.70;3.53;;;;;;;;;;4918583;29;20172;-90
2021/06/14 04:24:09;;;;;;;5.28;3.50;;;;;;;;;;4901166;29;20211;-90
2021/06/14 04:26:34;;;;;;;3.83;3.28;;;;;;;;;;4917703;29;20211;-91
2021/06/14 04:29:00;;;;;;;3.67;3.05;;;;;;;;;;4918076;29;20184;-90
2021/06/14 04:31:25;;;;;;;5.30;3.00;;;;;;;;;;4917673;29;20733;-89
2021/06/14 04:33:51;;;;;;;7.13;2.90;;;;;;;;;;4917841;29;20250;-90
2021/06/14 04:36:16;;;;;;;4.25;3.03;;;;;;;;;;4917636;29;20177;-86
2021/06/14 04:38:41;;;;;;;4.30;3.20;;;;;;;;;;4917793;29;20172;-89
2021/06/14 04:41:07;;;;;;;5.70;3.35;;;;;;;;;;4917449;29;20640;-90
2021/06/14 04:43:32;;;;;;;3.33;2.83;;;;;;;;;;4917716;29;20169;-89
2021/06/14 04:45:57;;;;;;;4.40;2.83;;;;;;;;;;4918016;29;20184;-90
2021/06/14 04:48:23;;;;;;;3.97;3.20;;;;;;;;;;4917467;29;20663;-90
2021/06/14 04:50:48;;;;;;;3.55;3.15;;;;;;;;;;4917886;29;20192;-90
2021/06/14 04:53:14;;;;;;;3.97;3.20;;;;;;;;;;4917013;29;20172;-90
2021/06/14 04:55:39;;;;;;;4.55;3.10;;;;;;;;;;4917296;29;20264;-90
2021/06/14 04:58:04;;;;;;;4.40;3.13;;;;;;;;;;4917177;29;20248;-90
2021/06/14 05:00:30;;;;;;;4.88;3.40;;;;;;;;;;4917180;29;20243;-90
2021/06/14 05:02:55;;;;;;;3.38;3.05;;;;;;;;;;4917401;29;20522;-91
2021/06/14 05:05:21;;;;;;;4.25;3.17;;;;;;;;;;4917409;29;20176;-90
2021/06/14 05:07:46;;;;;;;4.40;3.10;;;;;;;;;;4917314;29;20612;-90
2021/06/14 05:10:11;;;;;;;5.32;3.35;;;;;;;;;;4917091;29;20181;-91
2021/06/14 05:12:37;;;;;;;4.22;3.25;;;;;;;;;;4917535;29;20180;-91
2021/06/14 05:15:03;;;;;;;4.18;2.90;;;;;;;;;;4916949;29;20535;-91
2021/06/14 05:17:29;;;;;;;4.40;3.08;;;;;;;;;;4917458;29;20208;-91
2021/06/14 05:19:54;;;;;;;6.30;3.05;;;;;;;;;;4916893;29;20499;-92
2021/06/14 05:22:19;;;;;;;3.70;2.53;;;;;;;;;;4917208;29;20172;-87
2021/06/14 05:24:44;;;;;;;4.25;2.80;;;;;;;;;;4917064;29;20192;-91
2021/06/14 05:27:10;;;;;;;2.90;2.60;;;;;;;;;;4917334;29;20283;-91
2021/06/14 05:29:35;;;;;;;4.75;2.90;;;;;;;;;;4917121;29;20256;-91
2021/06/14 05:32:01;;;;;;;2.90;2.65;;;;;;;;;;4916499;29;20259;-91
2021/06/14 05:34:26;;;;;;;3.05;2.40;;;;;;;;;;4917001;29;20183;-91
2021/06/14 05:36:52;;;;;;;2.95;2.65;;;;;;;;;;4916437;29;20210;-90
2021/06/14 05:39:17;;;;;;;2.80;2.60;;;;;;;;;;4916925;29;20254;-91
2021/06/14 05:41:43;;;;;;;3.80;2.70;;;;;;;;;;4916528;29;20172;-90
2021/06/14 05:44:08;;;;;;;3.22;2.88;;;;;;;;;;4916546;29;20256;-90
2021/06/14 05:46:34;;;;;;;3.85;2.60;;;;;;;;;;4916520;29;20587;-91
2021/06/14 05:48:59;;;;;;;3.78;2.75;;;;;;;;;;4917107;29;20176;-91
2021/06/14 05:51:24;;;;;;;3.25;2.80;;;;;;;;;;4916790;29;20176;-92
2021/06/14 05:53:50;;;;;;;3.17;2.88;;;;;;;;;;4916727;29;20566;-92
2021/06/14 05:56:16;;;;;;;2.85;2.50;;;;;;;;;;4915399;29;20180;-93
2021/06/14 05:58:41;;;;;;;3.25;2.65;;;;;;;;;;4916683;29;20572;-93
2021/06/14 06:01:06;;;;;;;2.95;2.63;;;;;;;;;;4916892;29;20210;-95
2021/06/14 06:03:32;;;;;;;4.90;2.92;;;;;;;;;;4899244;29;20227;-92
2021/06/14 06:05:57;;;;;;;2.78;2.53;;;;;;;;;;4914775;29;20254;-91
2021/06/14 06:08:23;;;;;;;2.63;2.42;;;;;;;;;;4916572;29;20319;-88
2021/06/14 06:10:48;;;;;;;3.92;2.53;;;;;;;;;;4916634;29;20172;-91
2021/06/14 06:13:13;;;;;;;3.20;2.90;;;;;;;;;;4916125;29;20176;-89
2021/06/14 06:15:39;;;;;;;4.10;2.70;;;;;;;;;;4899095;29;20179;-89
2021/06/14 06:18:04;;;;;;;3.63;2.97;;;;;;;;;;4916247;29;20231;-89
2021/06/14 06:20:29;;;;;;;3.08;2.60;;;;;;;;;;4916048;29;20304;-89
2021/06/14 06:22:55;;;;;;;5.15;2.70;;;;;;;;;;4916082;29;20199;-89
2021/06/14 06:25:22;;;;;;;3.40;2.60;;;;;;;;;;4916556;29;20180;-89
2021/06/14 06:27:48;;;;;;;3.40;2.78;;;;;;;;;;4916348;29;20180;-89
2021/06/14 06:30:14;;;;;;;3.83;2.83;;;;;;;;;;4916310;29;20204;-90
2021/06/14 06:32:39;;;;;;;2.80;2.60;;;;;;;;;;4915997;29;20231;-95
2021/06/14 06:35:05;;;;;;;4.18;2.80;;;;;;;;;;4898998;29;20533;-91
2021/06/14 06:37:31;;;;;;;3.40;2.80;;;;;;;;;;4915774;29;20271;-91
2021/06/14 06:39:56;;;;;;;2.72;2.53;;;;;;;;;;4917859;29;20183;-89
2021/06/14 06:42:21;;;;;;;2.95;2.65;;;;;;;;;;4938052;28;20184;-91
2021/06/14 06:44:47;;;;;;;3.10;2.80;;;;;;;;;;4939476;29;20187;-91
2021/06/14 06:47:12;;;;;;;3.50;2.70;;;;;;;;;;4935019;28;20203;-90
2021/06/14 06:49:37;;;;;;;2.97;2.78;;;;;;;;;;4915522;29;20172;-91
2021/06/14 06:52:03;;;;;;;3.00;2.58;;;;;;;;;;4898434;29;20191;-91
2021/06/14 06:54:28;;;;;;;3.00;2.80;;;;;;;;;;4916084;29;20172;-88
2021/06/14 06:56:54;;;;;;;3.67;2.55;;;;;;;;;;4916282;29;20208;-89
2021/06/14 06:59:20;;;;;;;3.15;2.70;;;;;;;;;;4916141;29;20654;-89
2021/06/14 07:01:49;;;;;;;2.47;2.28;;;;;;;;;;4916310;29;20658;-90
2021/06/14 07:04:14;;;;;;;2.38;2.28;;;;;;;;;;4916348;29;20635;-90
2021/06/14 07:06:39;;;;;;;4.40;2.67;;;;;;;;;;4916176;29;20323;-89
2021/06/14 07:09:05;;;;;;;2.45;2.25;;;;;;;;;;4916335;29;20179;-90
2021/06/14 07:11:33;;;;;;;2.90;2.70;;;;;;;;;;4915564;29;20184;-90
2021/06/14 07:13:58;;;;;;;2.45;2.25;;;;;;;;;;4915922;29;20168;-88
2021/06/14 07:16:24;;;;;;;2.95;2.45;;;;;;;;;;4917423;29;20187;-89
2021/06/14 07:18:50;;;;;;;2.90;2.50;;;;;;;;;;4919271;29;20168;-90
2021/06/14 07:21:15;;;;;;;2.70;2.50;;;;;;;;;;4919567;29;20172;-89
2021/06/14 07:23:41;;;;;;;2.85;2.33;;;;;;;;;;4919317;29;20175;-90
2021/06/14 07:26:07;;;;;;;2.40;2.20;;;;;;;;;;4918991;29;20176;-90
2021/06/14 07:28:33;;;;;;;2.40;2.20;;;;;;;;;;4919378;29;20614;-89
2021/06/14 07:30:59;;;;;;;2.40;2.20;;;;;;;;;;4920040;29;20178;-89
2021/06/14 07:33:24;;;;;;;2.10;1.90;;;;;;;;;;4919599;29;20231;-89
2021/06/14 07:35:49;;;;;;;3.25;2.05;;;;;;;;;;4919226;29;20371;-90
2021/06/14 07:38:15;;;;;;;2.85;2.03;;;;;;;;;;4902065;29;20220;-91
2021/06/14 07:40:41;;;;;;;2.38;2.17;;;;;;;;;;4919189;29;20642;-89
2021/06/14 07:43:10;;;;;;;3.53;2.22;;;;;;;;;;4901906;29;20623;-91
2021/06/14 07:45:35;;;;;;;2.92;2.17;;;;;;;;;;4902210;29;20172;-91
2021/06/14 07:48:00;;;;;;;2.13;1.98;;;;;;;;;;4918949;29;20176;-85
2021/06/14 07:50:26;;;;;;;3.17;2.10;;;;;;;;;;4919751;29;20176;-88
2021/06/14 07:52:51;;;;;;;2.35;2.00;;;;;;;;;;4917265;29;20191;-88
2021/06/14 07:55:16;;;;;;;1.83;1.73;;;;;;;;;;4916975;29;20192;-88
2021/06/14 07:57:42;;;;;;;2.10;2.00;;;;;;;;;;4916900;29;20216;-88
2021/06/14 08:00:08;;;;;;;2.97;2.13;;;;;;;;;;4917403;29;20172;-91
2021/06/14 08:02:36;;;;;;;2.50;2.10;;;;;;;;;;4917325;29;20183;-92
2021/06/14 08:05:04;;;;;;;1.92;1.83;;;;;;;;;;4914271;29;20703;-87
2021/06/14 08:07:30;;;;;;;2.60;2.20;;;;;;;;;;4916790;29;20177;-91
2021/06/14 08:10:00;;;;;;;2.50;2.30;;;;;;;;;;4916552;29;20183;-91
2021/06/14 08:12:26;;;;;;;3.17;2.20;;;;;;;;;;4918086;29;20195;-91
2021/06/14 08:14:51;;;;;;;1.92;1.83;;;;;;;;;;4917000;29;20208;-90
2021/06/14 08:17:16;;;;;;;2.45;2.25;;;;;;;;;;4918621;29;20654;-91
2021/06/14 08:20:02;;;;;;;2.35;2.15;;;;;;;;;;4917612;29;20169;-90
2021/06/14 08:27:43;;;;;;;2.80;2.55;;;;;;;;;;4918316;29;20173;-92
2021/06/14 08:30:10;;;;;;;2.78;2.50;;;;;;;;;;4917825;29;20207;-92
2021/06/14 08:32:36;;;;;;;2.65;2.45;;;;;;;;;;4916807;29;20240;-91
2021/06/14 08:35:03;;;;;;;2.47;2.28;;;;;;;;;;4901252;29;20180;-93
2021/06/14 08:37:30;;;;;;;3.20;2.65;;;;;;;;;;4917613;29;20275;-91
2021/06/14 08:39:55;;;;;;;3.33;2.40;;;;;;;;;;4900999;29;20180;-92
2021/06/14 08:42:21;;;;;;;3.33;2.40;;;;;;;;;;4917396;29;20188;-91
2021/06/14 08:44:46;;;;;;;3.58;2.60;;;;;;;;;;4918373;29;20590;-93
2021/06/14 08:47:13;;;;;;;2.40;2.25;;;;;;;;;;4916922;29;20188;-94
2021/06/14 08:49:41;;;;;;;2.50;2.30;;;;;;;;;;4902072;29;20181;-93
2021/06/14 08:52:07;;;;;;;3.00;2.65;;;;;;;;;;4901556;29;20183;-92
2021/06/14 08:54:33;;;;;;;4.15;2.38;;;;;;;;;;4902643;29;20184;-91
2021/06/14 08:57:01;;;;;;;2.80;2.60;;;;;;;;;;4916985;29;20215;-94
2021/06/14 08:59:26;;;;;;;3.25;2.55;;;;;;;;;;4901525;29;20180;-92
2021/06/14 09:01:53;;;;;;;2.95;2.58;;;;;;;;;;4886478;29;20215;-92
2021/06/14 09:04:32;;;;;;;2.72;2.53;;;;;;;;;;4919466;29;20181;-96
2021/06/14 09:07:00;;;;;;;3.53;2.50;;;;;;;;;;4919421;29;20556;-92
2021/06/14 09:09:27;;;;;;;2.58;2.38;;;;;;;;;;4900248;29;20173;-92
2021/06/14 09:11:54;;;;;;;3.92;2.70;;;;;;;;;;4918901;29;20176;-93
2021/06/14 09:14:24;;;;;;;3.63;2.50;;;;;;;;;;4917262;29;20231;-93
2021/06/14 09:16:51;;;;;;;2.97;2.67;;;;;;;;;;4917803;29;20214;-94
2021/06/14 09:19:31;;;;;;;3.13;2.83;;;;;;;;;;4917636;29;20260;-92
2021/06/14 09:21:56;;;;;;;4.63;2.50;;;;;;;;;;4917138;29;20183;-95
2021/06/14 09:24:26;;;;;;;4.17;2.60;;;;;;;;;;4915151;29;20176;-92
2021/06/14 09:26:52;;;;;;;2.70;2.50;;;;;;;;;;4924811;29;20193;-92
2021/06/14 09:29:24;;;;;;;3.67;2.65;;;;;;;;;;4936762;29;20188;-93
2021/06/14 09:31:53;;;;;;;6.37;2.83;;;;;;;;;;4913270;29;20241;-96
2021/06/14 09:34:31;;;;;;;3.57;2.60;;;;;;;;;;4922701;29;20197;-96
2021/06/14 09:36:57;;;;;;;2.97;2.70;;;;;;;;;;4925663;29;20204;-96
2021/06/14 09:39:24;;;;;;;4.27;3.43;;;;;;;;;;4916212;29;20184;-96
2021/06/14 09:42:17;;;;;;;3.60;2.90;;;;;;;;;;4906605;29;20204;-96
2021/06/14 09:44:43;;;;;;;2.53;2.33;;;;;;;;;;4905296;29;20180;-93
2021/06/14 09:47:09;;;;;;;3.23;2.50;;;;;;;;;;4905834;29;20192;-94
2021/06/14 09:49:37;;;;;;;3.17;2.70;;;;;;;;;;4901260;29;20267;-95
2021/06/14 09:52:05;;;;;;;3.50;2.83;;;;;;;;;;4918981;29;20173;-96
2021/06/14 09:54:36;;;;;;;2.80;2.60;;;;;;;;;;4916349;29;20184;-96
2021/06/14 09:57:04;;;;;;;3.43;2.70;;;;;;;;;;4923012;29;20224;-95
2021/06/14 09:59:44;;;;;;;3.58;2.60;;;;;;;;;;4907058;29;20535;-96
2021/06/14 10:02:17;;;;;;;4.07;2.60;;;;;;;;;;4914132;29;20196;-96
2021/06/14 10:04:43;;;;;;;3.50;2.70;;;;;;;;;;4904265;29;20216;-95
2021/06/14 10:07:24;;;;;;;4.53;2.60;;;;;;;;;;4919080;29;20188;-96
2021/06/14 10:09:51;;;;;;;3.35;2.70;;;;;;;;;;4921007;29;20199;-94
2021/06/14 10:12:20;;;;;;;2.83;2.47;;;;;;;;;;4928836;29;20208;-95
2021/06/14 10:15:43;;;;;;;3.95;2.72;;;;;;;;;;4910769;29;20174;-96
2021/06/14 10:18:13;;;;;;;5.47;2.80;;;;;;;;;;4886167;29;20227;-96
2021/06/14 10:20:40;;;;;;;4.50;2.60;;;;;;;;;;4916923;29;20227;-94
2021/06/14 10:23:07;;;;;;;2.95;2.67;;;;;;;;;;4900483;29;20303;-95
2021/06/14 10:25:36;;;;;;;3.17;2.78;;;;;;;;;;4900611;29;20180;-95
2021/06/14 10:28:07;;;;;;;3.58;2.42;;;;;;;;;;4902316;29;20644;-96
2021/06/14 10:30:33;;;;;;;2.88;2.53;;;;;;;;;;4899730;29;20196;-94
2021/06/14 10:32:58;;;;;;;2.63;2.40;;;;;;;;;;4898350;29;20240;-95
2021/06/14 10:35:24;;;;;;;5.57;2.60;;;;;;;;;;4898628;29;20183;-95
2021/06/14 10:37:51;;;;;;;5.65;2.80;;;;;;;;;;4900891;29;20216;-95
2021/06/14 10:40:18;;;;;;;2.90;2.40;;;;;;;;;;4900138;29;20643;-96
2021/06/14 10:42:47;;;;;;;3.22;2.55;;;;;;;;;;4916655;29;20243;-96
2021/06/14 10:45:14;;;;;;;2.73;2.40;;;;;;;;;;4900874;29;20181;-96
2021/06/14 10:47:40;;;;;;;2.88;2.67;;;;;;;;;;4906898;29;20181;-94
2021/06/14 10:50:11;;;;;;;2.95;2.72;;;;;;;;;;4901039;29;20543;-94
2021/06/14 10:52:54;;;;;;;3.22;2.92;;;;;;;;;;4902902;29;20185;-96
2021/06/14 10:55:25;;;;;;;3.28;2.80;;;;;;;;;;4909401;29;20226;-96
2021/06/14 10:57:53;;;;;;;4.97;2.87;;;;;;;;;;4920842;29;20663;-95
2021/06/14 11:00:25;;;;;;;2.87;2.57;;;;;;;;;;4907240;29;20188;-96
2021/06/14 11:02:51;;;;;;;4.50;2.90;;;;;;;;;;4906375;29;20215;-96
2021/06/14 11:05:27;;;;;;;2.80;2.60;;;;;;;;;;4909924;29;20212;-96
2021/06/14 11:07:53;;;;;;;2.75;2.55;;;;;;;;;;4901575;29;20184;-95
2021/06/14 11:10:23;;;;;;;3.53;2.60;;;;;;;;;;4886086;29;20573;-93
2021/06/14 11:12:49;;;;;;;5.13;3.95;;;;;;;;;;4898238;29;20188;-95
2021/06/14 11:15:15;;;;;;;4.20;3.80;;;;;;;;;;4919901;29;20711;-96
2021/06/14 11:17:40;;;;;;;6.63;3.70;;;;;;;;;;4919871;29;20216;-95
2021/06/14 11:20:09;;;;;;;3.25;2.95;;;;;;;;;;4921353;29;20188;-95
2021/06/14 11:22:36;;;;;;;2.58;2.38;;;;;;;;;;4920150;29;20187;-93
2021/06/14 11:25:16;;;;;;;3.97;3.50;;;;;;;;;;4921001;29;20267;-95
2021/06/14 11:27:42;;;;;;;4.78;3.63;;;;;;;;;;4921991;29;20172;-94
2021/06/14 11:30:17;;;;;;;4.15;3.00;;;;;;;;;;4920467;29;20232;-91
2021/06/14 11:32:42;;;;;;;3.78;3.47;;;;;;;;;;4883959;29;20330;-92
2021/06/14 11:35:09;;;;;;;4.03;2.78;;;;;;;;;;4884311;29;20272;-93
2021/06/14 11:37:36;;;;;;;3.33;2.70;;;;;;;;;;4884357;29;20299;-92
2021/06/14 11:40:01;;;;;;;2.80;2.53;;;;;;;;;;4884229;29;20220;-90
2021/06/14 11:42:28;;;;;;;3.05;2.85;;;;;;;;;;4901331;29;20205;-92
2021/06/14 11:44:54;;;;;;;2.75;2.55;;;;;;;;;;4884380;29;20523;-93
2021/06/14 11:47:26;;;;;;;2.80;2.60;;;;;;;;;;4886492;29;20235;-90
2021/06/14 11:49:53;;;;;;;4.22;3.00;;;;;;;;;;4919351;29;20183;-91
2021/06/14 11:52:19;;;;;;;2.70;2.50;;;;;;;;;;4902703;29;20199;-90
2021/06/14 11:54:49;;;;;;;3.80;2.70;;;;;;;;;;4903007;29;20554;-94
2021/06/14 11:57:14;;;;;;;4.68;3.50;;;;;;;;;;4902439;29;20231;-95
2021/06/14 11:59:40;;;;;;;3.67;3.33;;;;;;;;;;4914643;29;20184;-92
2021/06/14 12:02:24;;;;;;;3.08;2.80;;;;;;;;;;4903401;29;20183;-96
2021/06/14 12:04:53;;;;;;;4.25;3.05;;;;;;;;;;4903711;29;20176;-90
2021/06/14 12:07:48;;;;;;;3.08;2.80;;;;;;;;;;4915758;29;20220;-92
2021/06/14 12:10:16;;;;;;;3.13;2.92;;;;;;;;;;4906981;29;20663;-92
2021/06/14 12:17:56;;;;;;;4.88;2.75;;;;;;;;;;5066528;27;20531;-94
2021/06/14 12:20:24;;;;;;;2.80;2.60;;;;;;;;;;5050701;28;20281;-94
2021/06/14 12:22:57;;;;;;;3.53;2.60;;;;;;;;;;5051569;28;20175;-95
2021/06/14 12:25:22;;;;;;;2.95;2.72;;;;;;;;;;5037693;28;20186;-91
2021/06/14 12:27:56;;;;;;;3.20;2.90;;;;;;;;;;5047361;27;20163;-88
2021/06/14 12:30:25;;;;;;;4.03;3.05;;;;;;;;;;5066007;27;20173;-90
2021/06/14 12:32:53;;;;;;;3.22;2.92;;;;;;;;;;5034693;28;20191;-93
2021/06/14 12:35:18;;;;;;;3.25;2.95;;;;;;;;;;5067474;28;20227;-90
2021/06/14 12:37:43;;;;;;;3.70;3.30;;;;;;;;;;5060150;28;20561;-91
2021/06/14 12:40:10;;;;;;;3.00;2.80;;;;;;;;;;5048006;28;20183;-89
2021/06/14 12:42:36;;;;;;;4.97;2.50;;;;;;;;;;5030045;28;20567;-91
2021/06/14 12:45:07;;;;;;;2.95;2.63;;;;;;;;;;5047402;28;20252;-90
2021/06/14 12:47:33;;;;;;;3.25;2.97;;;;;;;;;;5047640;28;20176;-90
2021/06/14 12:50:00;;;;;;;4.40;2.90;;;;;;;;;;5029705;28;20176;-89
2021/06/14 12:52:26;;;;;;;3.28;2.75;;;;;;;;;;5047225;28;20179;-90
2021/06/14 12:54:52;;;;;;;3.55;3.10;;;;;;;;;;5049339;28;20165;-91
2021/06/14 12:57:18;;;;;;;4.03;3.30;;;;;;;;;;5066839;27;20206;-90
2021/06/14 13:02:50;;;;;;;2.72;2.53;;;;;;;;;;5066826;28;20171;-90
2021/06/14 13:05:17;;;;;;;2.90;2.70;;;;;;;;;;5059531;28;20254;-90
2021/06/14 13:07:52;;;;;;;2.92;2.67;;;;;;;;;;5046822;28;20172;-89
2021/06/14 13:10:18;;;;;;;3.33;2.70;;;;;;;;;;5046570;28;20258;-90
2021/06/14 13:12:44;;;;;;;3.20;2.60;;;;;;;;;;5046506;28;20168;-89
2021/06/14 13:15:11;;;;;;;4.00;3.60;;;;;;;;;;5049441;27;20266;-89
2021/06/14 13:17:37;;;;;;;4.50;3.30;;;;;;;;;;5046771;28;20236;-88
2021/06/14 13:20:03;;;;;;;3.42;2.70;;;;;;;;;;5029272;28;20636;-89
2021/06/14 13:22:32;;;;;;;4.00;2.75;;;;;;;;;;5046751;28;20255;-89
2021/06/14 13:25:05;;;;;;;2.65;2.50;;;;;;;;;;5046517;28;20588;-89
2021/06/14 13:27:32;;;;;;;2.75;2.60;;;;;;;;;;5043138;28;20685;-89
2021/06/14 13:29:57;;;;;;;3.30;3.00;;;;;;;;;;5033821;28;20179;-89
2021/06/14 13:32:33;;;;;;;3.33;2.83;;;;;;;;;;5033246;28;20259;-89
2021/06/14 13:35:04;;;;;;;2.85;2.60;;;;;;;;;;5033862;28;20233;-88
2021/06/14 13:37:39;;;;;;;3.47;2.55;;;;;;;;;;5119339;27;20205;-89
2021/06/14 13:40:11;;;;;;;2.83;2.63;;;;;;;;;;5119906;27;20473;-89
2021/06/14 13:42:49;;;;;;;3.75;3.45;;;;;;;;;;5138090;27;20171;-89
2021/06/14 13:45:15;;;;;;;3.30;2.80;;;;;;;;;;5137965;27;20165;-88
2021/06/14 13:47:40;;;;;;;3.38;3.08;;;;;;;;;;5133980;27;20256;-88
2021/06/14 13:50:10;;;;;;;2.88;2.67;;;;;;;;;;5137637;27;20500;-88
